No.10 Hasshomaru — JD2992 — position and weather

sailwx.info

Track history (hours):
 
Tides and Currents Weather Stations Pressure Air Temp Water Temp Dewpoint Dewpoint Depression Visibility Wind Speed Wind Dir Waves Ship Positions

No.10 Hasshomaru

Last reported at 2017-Dec-17 10:00 UTC. Time now 2017-Dec-17 10:15 UTC.
Position N 41°47' E 141°19'.

Length 105 m; draft 5.3 m.

Type: Tanker. MMSI: 431001112.

Date/timePositionNaut miles runAvg speedWind from/ knotsBaromVisibWave heightAir tempDewpointWater temp
2017-Dec-17 10:00N 41°47' E 141°19'7 0.2
2017-Dec-16 01:47N 41°53' E 141°13'413.3
2017-Dec-16 01:30N 41°49' E 141°15'713.6
2017-Dec-16 01:00N 41°44' E 141°10'816.2
2017-Dec-16 00:30N 41°40' E 141°00'917.0
2017-Dec-16 00:01N 41°37' E 140°50'816.5
2017-Dec-15 23:31N 41°31' E 140°41'917.1
2017-Dec-15 23:00N 41°26' E 140°33'815.2
2017-Dec-15 22:30N 41°20' E 140°26'  
2017-Dec-13 08:21N 41°18' E 140°18'3 7.7
2017-Dec-13 07:55N 41°18' E 140°22'510.5
2017-Dec-13 07:28N 41°17' E 140°28'611.9
2017-Dec-13 06:59N 41°15' E 140°35'510.3
2017-Dec-13 06:30N 41°12' E 140°41'1012.0
2017-Dec-13 05:39N 41°02' E 140°44'213.1
2017-Dec-13 05:30N 41°01' E 140°44'510.4
2017-Dec-13 05:00N 40°55' E 140°45'0 0.2
2017-Dec-13 04:31N 40°55' E 140°45'0 0.0
2017-Dec-13 04:00N 40°55' E 140°45'0 0.0
2017-Dec-13 03:30N 40°55' E 140°45'0 0.0
2017-Dec-13 03:00N 40°55' E 140°45'0 0.0
2017-Dec-13 02:30N 40°56' E 140°45'0 0.0
2017-Dec-13 01:53N 40°55' E 140°45'0 0.0
2017-Dec-13 01:29N 40°55' E 140°45'0 0.0
2017-Dec-13 00:48N 40°55' E 140°45'0 0.0
2017-Dec-13 00:29N 40°55' E 140°45'0 0.0
2017-Dec-12 23:59N 40°55' E 140°45'0 0.0
2017-Dec-12 23:28N 40°55' E 140°45'0 0.0
2017-Dec-12 23:00N 40°55' E 140°45'0 0.0
2017-Dec-12 22:29N 40°55' E 140°45'0 0.0
2017-Dec-12 21:50N 40°55' E 140°45'0 0.0
2017-Dec-12 21:31N 40°55' E 140°45'0 0.0
2017-Dec-12 19:02N 40°55' E 140°45'0 0.1
2017-Dec-12 19:00N 40°55' E 140°45'0 0.0
2017-Dec-12 18:29N 40°56' E 140°45'0 0.0
2017-Dec-12 18:00N 40°56' E 140°45'0 0.0
2017-Dec-12 17:30N 40°56' E 140°45'0 0.0
2017-Dec-12 15:10N 40°56' E 140°45'0 0.0
2017-Dec-12 14:59N 40°56' E 140°45'0 0.0
2017-Dec-12 13:35N 40°56' E 140°45'0 0.1
2017-Dec-12 13:31N 40°56' E 140°45'0 0.0
2017-Dec-12 12:27N 40°56' E 140°45'0 0.0
2017-Dec-12 11:04N 40°56' E 140°45'0 0.0
2017-Dec-12 11:00N 40°56' E 140°45'0 0.0
2017-Dec-12 09:57N 40°56' E 140°45'0 0.0
2017-Dec-12 09:17N 40°56' E 140°45'0 0.0
2017-Dec-12 08:36N 40°56' E 140°45'0 0.0
2017-Dec-12 08:24N 40°56' E 140°45'0 0.0
2017-Dec-12 07:59N 40°56' E 140°45'0 0.0
2017-Dec-12 07:27N 40°56' E 140°45'0 0.0
2017-Dec-12 07:00N 40°56' E 140°45'0 0.0
2017-Dec-12 06:16N 40°56' E 140°45'0 0.0
2017-Dec-12 05:59N 40°56' E 140°45'0 0.0
2017-Dec-12 05:26N 40°56' E 140°45'0 0.0
2017-Dec-12 05:00N 40°56' E 140°45'0 0.0
2017-Dec-12 04:30N 40°56' E 140°45'0 0.0
2017-Dec-12 04:00N 40°56' E 140°45'0 0.0
2017-Dec-12 03:29N 40°56' E 140°45'0 0.0
2017-Dec-12 03:01N 40°56' E 140°45'0 0.0
2017-Dec-12 02:28N 40°56' E 140°45'0 0.0
2017-Dec-12 02:00N 40°56' E 140°45'0 0.0
2017-Dec-12 01:30N 40°56' E 140°45'0 0.0
2017-Dec-12 01:00N 40°56' E 140°45'0 0.0
2017-Dec-12 00:28N 40°56' E 140°45'0 0.0
2017-Dec-11 23:39N 40°56' E 140°45'0 0.0
2017-Dec-11 23:02N 40°56' E 140°45'0 0.0
2017-Dec-11 22:50N 40°56' E 140°45'0 0.0
2017-Dec-11 22:31N 40°56' E 140°45'0 0.0
2017-Dec-11 21:59N 40°56' E 140°45'0 0.0
2017-Dec-11 21:29N 40°56' E 140°45'4 6.9
2017-Dec-11 20:51N 40°60' E 140°44'713.6
2017-Dec-11 20:21N 41°07' E 140°43'513.4
2017-Dec-11 20:00N 41°11' E 140°43'612.4
2017-Dec-11 19:29N 41°18' E 140°44'612.1
2017-Dec-11 19:00N 41°23' E 140°46'611.5
2017-Dec-11 18:31N 41°29' E 140°48'510.7
2017-Dec-11 18:00N 41°34' E 140°51'4 9.0
2017-Dec-11 17:31N 41°37' E 140°54'5 9.6
2017-Dec-11 17:00N 41°40' E 141°00'610.7
2017-Dec-11 16:29N 41°43' E 141°06'612.6
2017-Dec-11 16:00N 41°46' E 141°13'8 0.5
2017-Dec-10 23:20N 41°53' E 141°17'514.4
2017-Dec-10 23:00N 41°48' E 141°15'714.4
2017-Dec-10 22:30N 41°44' E 141°08'715.2
2017-Dec-10 22:00N 41°39' E 140°60'917.4
2017-Dec-10 21:30N 41°35' E 140°50'816.9
2017-Dec-10 21:00N 41°30' E 140°41'917.7
2017-Dec-10 20:30N 41°25' E 140°31'917.7
2017-Dec-10 20:00N 41°20' E 140°21'2816.0
2017-Dec-10 18:16N 40°56' E 140°01'815.5
2017-Dec-10 17:46N 40°49' E 139°56'31 1.2
2017-Dec-09 15:26N 41°16' E 140°17'510.8
2017-Dec-09 14:59N 41°20' E 140°22'611.4
2017-Dec-09 14:28N 41°23' E 140°28'612.6
2017-Dec-09 14:00N 41°26' E 140°34'612.3
2017-Dec-09 13:30N 41°30' E 140°41'612.6
2017-Dec-09 13:00N 41°34' E 140°48'612.7
2017-Dec-09 12:30N 41°37' E 140°55'612.7
2017-Dec-09 12:00N 41°41' E 141°02'713.0
2017-Dec-09 11:30N 41°44' E 141°09'713.2
2017-Dec-09 11:00N 41°50' E 141°15'4 0.1
2017-Dec-07 16:27N 41°54' E 141°13'613.0
2017-Dec-07 16:00N 41°49' E 141°17'612.3
2017-Dec-07 15:30N 41°43' E 141°22'612.2
2017-Dec-07 15:00N 41°38' E 141°26'611.5
2017-Dec-07 14:30N 41°33' E 141°30'612.2
2017-Dec-07 13:58N 41°27' E 141°33'  
Track history (hours):
 
Tides and Currents Weather Stations Pressure Air Temp Water Temp Dewpoint Dewpoint Depression Visibility Wind Speed Wind Dir Waves Ship Positions

No.10 Hasshomaru

Last reported at 2017-Dec-17 10:00 UTC. Time now 2017-Dec-17 10:15 UTC.
Position N 41°47' E 141°19'.

Length 105 m; draft 5.3 m.

Type: Tanker. MMSI: 431001112.

Date/timePositionNaut miles runAvg speedWind from/ knotsBaromVisibWave heightAir tempDewpointWater temp
2017-Dec-17 10:00N 41°47' E 141°19'7 0.2
2017-Dec-16 01:47N 41°53' E 141°13'413.3
2017-Dec-16 01:30N 41°49' E 141°15'713.6
2017-Dec-16 01:00N 41°44' E 141°10'816.2
2017-Dec-16 00:30N 41°40' E 141°00'917.0
2017-Dec-16 00:01N 41°37' E 140°50'816.5
2017-Dec-15 23:31N 41°31' E 140°41'917.1
2017-Dec-15 23:00N 41°26' E 140°33'815.2
2017-Dec-15 22:30N 41°20' E 140°26'  
2017-Dec-13 08:21N 41°18' E 140°18'3 7.7
2017-Dec-13 07:55N 41°18' E 140°22'510.5
2017-Dec-13 07:28N 41°17' E 140°28'611.9
2017-Dec-13 06:59N 41°15' E 140°35'510.3
2017-Dec-13 06:30N 41°12' E 140°41'1012.0
2017-Dec-13 05:39N 41°02' E 140°44'213.1
2017-Dec-13 05:30N 41°01' E 140°44'510.4
2017-Dec-13 05:00N 40°55' E 140°45'0 0.2
2017-Dec-13 04:31N 40°55' E 140°45'0 0.0
2017-Dec-13 04:00N 40°55' E 140°45'0 0.0
2017-Dec-13 03:30N 40°55' E 140°45'0 0.0
2017-Dec-13 03:00N 40°55' E 140°45'0 0.0
2017-Dec-13 02:30N 40°56' E 140°45'0 0.0
2017-Dec-13 01:53N 40°55' E 140°45'0 0.0
2017-Dec-13 01:29N 40°55' E 140°45'0 0.0
2017-Dec-13 00:48N 40°55' E 140°45'0 0.0
2017-Dec-13 00:29N 40°55' E 140°45'0 0.0
2017-Dec-12 23:59N 40°55' E 140°45'0 0.0
2017-Dec-12 23:28N 40°55' E 140°45'0 0.0
2017-Dec-12 23:00N 40°55' E 140°45'0 0.0
2017-Dec-12 22:29N 40°55' E 140°45'0 0.0
2017-Dec-12 21:50N 40°55' E 140°45'0 0.0
2017-Dec-12 21:31N 40°55' E 140°45'0 0.0
2017-Dec-12 19:02N 40°55' E 140°45'0 0.1
2017-Dec-12 19:00N 40°55' E 140°45'0 0.0
2017-Dec-12 18:29N 40°56' E 140°45'0 0.0
2017-Dec-12 18:00N 40°56' E 140°45'0 0.0
2017-Dec-12 17:30N 40°56' E 140°45'0 0.0
2017-Dec-12 15:10N 40°56' E 140°45'0 0.0
2017-Dec-12 14:59N 40°56' E 140°45'0 0.0
2017-Dec-12 13:35N 40°56' E 140°45'0 0.1
2017-Dec-12 13:31N 40°56' E 140°45'0 0.0
2017-Dec-12 12:27N 40°56' E 140°45'0 0.0
2017-Dec-12 11:04N 40°56' E 140°45'0 0.0
2017-Dec-12 11:00N 40°56' E 140°45'0 0.0
2017-Dec-12 09:57N 40°56' E 140°45'0 0.0
2017-Dec-12 09:17N 40°56' E 140°45'0 0.0
2017-Dec-12 08:36N 40°56' E 140°45'0 0.0
2017-Dec-12 08:24N 40°56' E 140°45'0 0.0
2017-Dec-12 07:59N 40°56' E 140°45'0 0.0
2017-Dec-12 07:27N 40°56' E 140°45'0 0.0
2017-Dec-12 07:00N 40°56' E 140°45'0 0.0
2017-Dec-12 06:16N 40°56' E 140°45'0 0.0
2017-Dec-12 05:59N 40°56' E 140°45'0 0.0
2017-Dec-12 05:26N 40°56' E 140°45'0 0.0
2017-Dec-12 05:00N 40°56' E 140°45'0 0.0
2017-Dec-12 04:30N 40°56' E 140°45'0 0.0
2017-Dec-12 04:00N 40°56' E 140°45'0 0.0
2017-Dec-12 03:29N 40°56' E 140°45'0 0.0
2017-Dec-12 03:01N 40°56' E 140°45'0 0.0
2017-Dec-12 02:28N 40°56' E 140°45'0 0.0
2017-Dec-12 02:00N 40°56' E 140°45'0 0.0
2017-Dec-12 01:30N 40°56' E 140°45'0 0.0
2017-Dec-12 01:00N 40°56' E 140°45'0 0.0
2017-Dec-12 00:28N 40°56' E 140°45'0 0.0
2017-Dec-11 23:39N 40°56' E 140°45'0 0.0
2017-Dec-11 23:02N 40°56' E 140°45'0 0.0
2017-Dec-11 22:50N 40°56' E 140°45'0 0.0
2017-Dec-11 22:31N 40°56' E 140°45'0 0.0
2017-Dec-11 21:59N 40°56' E 140°45'0 0.0
2017-Dec-11 21:29N 40°56' E 140°45'4 6.9
2017-Dec-11 20:51N 40°60' E 140°44'713.6
2017-Dec-11 20:21N 41°07' E 140°43'513.4
2017-Dec-11 20:00N 41°11' E 140°43'612.4
2017-Dec-11 19:29N 41°18' E 140°44'612.1
2017-Dec-11 19:00N 41°23' E 140°46'611.5
2017-Dec-11 18:31N 41°29' E 140°48'510.7
2017-Dec-11 18:00N 41°34' E 140°51'4 9.0
2017-Dec-11 17:31N 41°37' E 140°54'5 9.6
2017-Dec-11 17:00N 41°40' E 141°00'610.7
2017-Dec-11 16:29N 41°43' E 141°06'612.6
2017-Dec-11 16:00N 41°46' E 141°13'8 0.5
2017-Dec-10 23:20N 41°53' E 141°17'514.4
2017-Dec-10 23:00N 41°48' E 141°15'714.4
2017-Dec-10 22:30N 41°44' E 141°08'715.2
2017-Dec-10 22:00N 41°39' E 140°60'917.4
2017-Dec-10 21:30N 41°35' E 140°50'816.9
2017-Dec-10 21:00N 41°30' E 140°41'917.7
2017-Dec-10 20:30N 41°25' E 140°31'917.7
2017-Dec-10 20:00N 41°20' E 140°21'2816.0
2017-Dec-10 18:16N 40°56' E 140°01'815.5
2017-Dec-10 17:46N 40°49' E 139°56'31 1.2
2017-Dec-09 15:26N 41°16' E 140°17'510.8
2017-Dec-09 14:59N 41°20' E 140°22'611.4
2017-Dec-09 14:28N 41°23' E 140°28'612.6
2017-Dec-09 14:00N 41°26' E 140°34'612.3
2017-Dec-09 13:30N 41°30' E 140°41'612.6
2017-Dec-09 13:00N 41°34' E 140°48'612.7
2017-Dec-09 12:30N 41°37' E 140°55'612.7
2017-Dec-09 12:00N 41°41' E 141°02'713.0
2017-Dec-09 11:30N 41°44' E 141°09'713.2
2017-Dec-09 11:00N 41°50' E 141°15'4 0.1
2017-Dec-07 16:27N 41°54' E 141°13'613.0
2017-Dec-07 16:00N 41°49' E 141°17'612.3
2017-Dec-07 15:30N 41°43' E 141°22'612.2
2017-Dec-07 15:00N 41°38' E 141°26'611.5
2017-Dec-07 14:30N 41°33' E 141°30'612.2
2017-Dec-07 13:58N 41°27' E 141°33'  

Dump ship's entire track history